createdAt,value
2017-12-31T00:01:33.087Z,0.43
2017-12-31T00:04:00.578Z,0.53
2017-12-31T00:06:28.114Z,0.70
2017-12-31T00:08:55.579Z,0.40
2017-12-31T00:11:23.071Z,0.60
2017-12-31T00:13:51.334Z,0.50
2017-12-31T00:16:18.812Z,0.80
2017-12-31T00:18:47.082Z,0.50
2017-12-31T00:21:15.287Z,0.50
2017-12-31T00:23:42.782Z,0.70
2017-12-31T00:26:10.272Z,0.57
2017-12-31T00:28:38.487Z,0.73
2017-12-31T00:31:05.969Z,0.73
2017-12-31T00:33:33.461Z,0.73
2017-12-31T00:36:01.668Z,0.77
2017-12-31T00:38:29.151Z,0.70
2017-12-31T00:40:56.591Z,0.80
2017-12-31T00:43:24.076Z,0.60
2017-12-31T00:45:51.569Z,0.70
2017-12-31T00:48:19.006Z,0.67
2017-12-31T00:50:47.256Z,0.60
2017-12-31T00:53:14.748Z,0.70
2017-12-31T00:55:42.947Z,0.70
2017-12-31T00:58:10.441Z,0.60
2017-12-31T01:00:38.003Z,0.60
2017-12-31T01:03:05.427Z,0.67
2017-12-31T01:05:32.877Z,0.50
2017-12-31T01:08:00.331Z,0.60
2017-12-31T01:10:27.778Z,0.90
2017-12-31T01:12:55.240Z,0.80
2017-12-31T01:15:22.670Z,1.00
2017-12-31T01:17:50.911Z,1.37
2017-12-31T01:20:18.779Z,0.63
2017-12-31T01:22:46.226Z,1.10
2017-12-31T01:25:13.678Z,1.00
2017-12-31T01:27:41.119Z,1.13
2017-12-31T01:30:08.587Z,1.70
2017-12-31T01:32:36.031Z,1.60
2017-12-31T01:35:03.482Z,1.40
2017-12-31T01:37:30.930Z,1.57
2017-12-31T01:39:59.152Z,1.43
2017-12-31T01:42:26.622Z,1.07
2017-12-31T01:44:54.126Z,1.50
2017-12-31T01:47:21.574Z,1.10
2017-12-31T01:49:49.039Z,1.63
2017-12-31T01:52:16.487Z,1.80
2017-12-31T01:54:44.710Z,1.30
2017-12-31T01:57:12.149Z,1.30
2017-12-31T01:59:39.615Z,1.80
2017-12-31T02:02:07.062Z,1.47
2017-12-31T02:04:34.518Z,2.00
2017-12-31T02:07:02.021Z,2.50
2017-12-31T02:09:29.431Z,2.10
2017-12-31T02:11:56.886Z,1.97
2017-12-31T02:14:24.347Z,1.53
2017-12-31T02:16:51.799Z,2.00
2017-12-31T02:19:19.243Z,1.80
2017-12-31T02:21:46.690Z,1.80
2017-12-31T02:24:14.154Z,2.03
2017-12-31T02:26:41.612Z,2.37
2017-12-31T02:29:09.110Z,1.73
2017-12-31T02:31:37.331Z,2.83
2017-12-31T02:34:04.782Z,2.40
2017-12-31T02:36:32.234Z,2.80
2017-12-31T02:38:59.689Z,2.50
2017-12-31T02:41:27.147Z,2.60
2017-12-31T02:43:55.359Z,2.27
2017-12-31T02:46:22.811Z,2.57
2017-12-31T02:48:50.254Z,2.17
2017-12-31T02:51:17.708Z,2.43
2017-12-31T02:53:45.150Z,2.27
2017-12-31T02:56:12.603Z,2.40
2017-12-31T02:58:40.051Z,2.40
2017-12-31T03:01:07.510Z,2.33
2017-12-31T03:03:34.962Z,2.40
2017-12-31T03:06:02.418Z,2.00
2017-12-31T03:08:29.857Z,1.93
2017-12-31T03:10:57.315Z,2.10
2017-12-31T03:13:24.754Z,3.00
2017-12-31T03:15:52.228Z,2.37
2017-12-31T03:18:19.717Z,1.83
2017-12-31T03:20:47.158Z,2.37
2017-12-31T03:23:14.615Z,1.53
2017-12-31T03:25:42.066Z,1.77
2017-12-31T03:28:09.529Z,3.17
2017-12-31T03:30:36.983Z,2.40
2017-12-31T03:33:04.423Z,2.60
2017-12-31T03:35:31.922Z,2.10
2017-12-31T03:37:59.366Z,2.10
2017-12-31T03:40:26.835Z,2.43
2017-12-31T03:42:54.283Z,2.27
2017-12-31T03:45:21.732Z,2.80
2017-12-31T03:47:49.180Z,1.60
2017-12-31T03:50:16.630Z,2.90
2017-12-31T03:52:44.855Z,1.40
2017-12-31T03:55:12.295Z,1.63
2017-12-31T03:57:39.754Z,1.97
2017-12-31T04:00:07.203Z,1.60
2017-12-31T04:02:34.656Z,1.77
2017-12-31T04:05:02.095Z,1.60
2017-12-31T04:07:29.555Z,2.33
2017-12-31T04:09:57.010Z,2.00
2017-12-31T04:12:24.462Z,1.43
2017-12-31T04:14:51.906Z,1.30
2017-12-31T04:17:19.362Z,1.23
2017-12-31T04:19:46.810Z,1.10
2017-12-31T04:22:14.254Z,1.00
2017-12-31T04:24:41.694Z,1.50
2017-12-31T04:27:09.915Z,1.37
2017-12-31T04:29:37.360Z,1.83
2017-12-31T04:32:04.815Z,1.27
2017-12-31T04:34:32.258Z,1.33
2017-12-31T04:36:59.720Z,1.07
2017-12-31T04:39:27.155Z,1.30
2017-12-31T04:41:54.603Z,1.40
2017-12-31T04:44:22.839Z,1.13
2017-12-31T04:46:50.304Z,1.30
2017-12-31T04:49:17.764Z,1.10
2017-12-31T04:51:45.223Z,1.80
2017-12-31T04:54:12.679Z,1.00
2017-12-31T04:56:40.131Z,1.20
2017-12-31T04:59:07.588Z,1.30
2017-12-31T05:01:35.046Z,1.13
2017-12-31T05:04:02.499Z,1.20
2017-12-31T05:06:29.951Z,0.97
2017-12-31T05:08:57.410Z,1.13
2017-12-31T05:11:24.862Z,1.23
2017-12-31T05:13:52.311Z,0.80
2017-12-31T05:16:19.756Z,1.20
2017-12-31T05:18:47.211Z,1.23
2017-12-31T05:21:14.655Z,1.87
2017-12-31T05:23:42.111Z,1.40
2017-12-31T05:26:09.557Z,1.30
2017-12-31T05:28:37.003Z,1.10
2017-12-31T05:31:04.447Z,1.20
2017-12-31T05:33:32.675Z,1.40
2017-12-31T05:36:00.124Z,1.40
2017-12-31T05:38:27.586Z,0.97
2017-12-31T05:40:55.047Z,1.23
2017-12-31T05:43:22.503Z,1.20
2017-12-31T05:45:49.947Z,1.30
2017-12-31T05:48:17.412Z,1.43
2017-12-31T05:50:44.862Z,1.17
2017-12-31T05:53:12.323Z,1.30
2017-12-31T05:55:39.779Z,1.10
2017-12-31T05:58:07.226Z,1.70
2017-12-31T06:00:34.671Z,1.30
2017-12-31T06:03:02.122Z,1.40
2017-12-31T06:05:29.566Z,1.40
2017-12-31T06:07:57.020Z,1.37
2017-12-31T06:10:24.468Z,1.53
2017-12-31T06:12:51.907Z,1.17
2017-12-31T06:15:19.350Z,1.43
2017-12-31T06:17:46.795Z,1.47
2017-12-31T06:20:14.245Z,1.20
2017-12-31T06:22:41.683Z,0.90
2017-12-31T06:25:09.135Z,1.20
2017-12-31T06:27:36.590Z,1.20
2017-12-31T06:30:04.045Z,1.20
2017-12-31T06:32:31.490Z,0.90
2017-12-31T06:34:58.950Z,1.20
2017-12-31T06:37:26.403Z,1.43
2017-12-31T06:39:53.862Z,1.10
2017-12-31T06:42:21.319Z,1.47
2017-12-31T06:44:48.775Z,1.20
2017-12-31T06:47:16.235Z,1.07
2017-12-31T06:49:43.687Z,1.37
2017-12-31T06:52:11.127Z,1.33
2017-12-31T06:54:38.570Z,2.33
2017-12-31T06:57:06.782Z,1.73
2017-12-31T06:59:34.227Z,1.43
2017-12-31T07:02:01.683Z,1.27
2017-12-31T07:04:29.138Z,1.43
2017-12-31T07:06:56.587Z,1.33
2017-12-31T07:09:24.033Z,1.73
2017-12-31T07:11:51.481Z,2.00
2017-12-31T07:14:19.706Z,1.57
2017-12-31T07:16:47.146Z,1.87
2017-12-31T07:19:14.593Z,1.50
2017-12-31T07:21:42.047Z,1.37
2017-12-31T07:24:09.491Z,1.63
2017-12-31T07:26:36.946Z,1.33
2017-12-31T07:29:04.387Z,1.07
2017-12-31T07:31:31.835Z,1.53
2017-12-31T07:34:00.044Z,2.03
2017-12-31T07:36:27.502Z,2.27
2017-12-31T07:38:54.952Z,3.27
2017-12-31T07:41:22.392Z,1.70
2017-12-31T07:43:49.830Z,1.53
2017-12-31T07:46:18.047Z,3.20
2017-12-31T07:48:45.499Z,2.67
2017-12-31T07:51:12.958Z,2.20
2017-12-31T07:53:40.417Z,1.70
2017-12-31T07:56:07.875Z,1.67
2017-12-31T07:58:35.329Z,2.37
2017-12-31T08:01:02.782Z,2.23
2017-12-31T08:03:30.235Z,3.33
2017-12-31T08:05:57.691Z,1.80
2017-12-31T08:08:25.131Z,2.10
2017-12-31T08:10:52.641Z,2.07
2017-12-31T08:13:20.075Z,2.10
2017-12-31T08:15:47.539Z,1.87
2017-12-31T08:18:14.989Z,1.73
2017-12-31T08:20:42.434Z,1.70
2017-12-31T08:23:09.890Z,2.03
2017-12-31T08:25:37.343Z,1.00
2017-12-31T08:28:04.798Z,3.80
2017-12-31T08:30:32.248Z,3.13
2017-12-31T08:32:59.700Z,3.17
2017-12-31T08:35:27.143Z,2.73
2017-12-31T08:37:54.598Z,1.20
2017-12-31T08:40:22.052Z,1.70
2017-12-31T08:42:50.267Z,2.13
2017-12-31T08:45:17.708Z,2.20
2017-12-31T08:47:45.166Z,2.00
2017-12-31T08:50:12.634Z,1.87
2017-12-31T08:52:40.084Z,1.70
2017-12-31T08:55:07.531Z,1.47
2017-12-31T08:57:34.982Z,2.27
2017-12-31T09:00:02.443Z,1.43
2017-12-31T09:02:29.901Z,1.20
2017-12-31T09:04:57.350Z,2.00
2017-12-31T09:07:24.807Z,1.30
2017-12-31T09:09:52.251Z,1.53
2017-12-31T09:12:19.703Z,1.60
2017-12-31T09:14:47.146Z,1.70
2017-12-31T09:17:15.373Z,1.43
2017-12-31T09:19:42.826Z,1.87
2017-12-31T09:22:10.287Z,1.77
2017-12-31T09:24:37.792Z,1.80
2017-12-31T09:27:06.018Z,1.90
2017-12-31T09:29:33.457Z,2.17
2017-12-31T09:32:00.906Z,1.77
2017-12-31T09:34:28.364Z,2.67
2017-12-31T09:36:55.822Z,1.97
2017-12-31T09:39:23.276Z,1.30
2017-12-31T09:41:50.730Z,1.40
2017-12-31T09:44:18.186Z,1.60
2017-12-31T09:46:45.650Z,1.80
2017-12-31T09:49:13.099Z,2.27
2017-12-31T09:51:40.555Z,1.80
2017-12-31T09:54:08.012Z,2.30
2017-12-31T09:56:35.470Z,1.00
2017-12-31T09:59:02.927Z,1.50
2017-12-31T10:01:30.369Z,2.23
2017-12-31T10:03:57.833Z,1.93
2017-12-31T10:06:25.262Z,1.03
2017-12-31T10:08:53.480Z,1.30
2017-12-31T10:11:20.923Z,1.40
2017-12-31T10:13:48.379Z,1.93
2017-12-31T10:16:15.831Z,1.60
2017-12-31T10:18:43.286Z,1.03
2017-12-31T10:21:10.730Z,1.83
2017-12-31T10:23:38.184Z,1.90
2017-12-31T10:26:05.630Z,1.70
2017-12-31T10:28:33.854Z,1.93
2017-12-31T10:31:01.305Z,2.63
2017-12-31T10:33:28.772Z,1.93
2017-12-31T10:35:56.222Z,2.07
2017-12-31T10:38:23.675Z,1.80
2017-12-31T10:40:51.123Z,2.27
2017-12-31T10:43:18.587Z,1.80
2017-12-31T10:45:46.034Z,2.00
2017-12-31T10:48:13.486Z,2.10
2017-12-31T10:50:40.933Z,1.53
2017-12-31T10:53:08.402Z,1.80
2017-12-31T10:55:35.872Z,1.37
2017-12-31T10:58:03.343Z,1.33
2017-12-31T11:00:36.774Z,1.20
2017-12-31T11:03:04.222Z,2.20
2017-12-31T11:05:32.443Z,1.67
2017-12-31T11:07:59.891Z,1.90
2017-12-31T11:10:27.343Z,1.30
2017-12-31T11:12:54.796Z,1.73
2017-12-31T11:15:22.267Z,2.07
2017-12-31T11:17:49.710Z,1.70
2017-12-31T11:20:17.163Z,1.57
2017-12-31T11:22:44.620Z,1.67
2017-12-31T11:25:12.083Z,1.67
2017-12-31T11:27:39.534Z,1.10
2017-12-31T11:30:06.987Z,1.50
2017-12-31T11:32:34.448Z,2.40
2017-12-31T11:35:01.903Z,1.37
2017-12-31T11:37:29.359Z,1.30
2017-12-31T11:39:56.811Z,1.77
2017-12-31T11:42:24.262Z,1.70
2017-12-31T11:44:51.709Z,1.20
2017-12-31T11:47:19.156Z,1.00
2017-12-31T11:49:47.404Z,1.50
2017-12-31T11:52:14.853Z,0.97
2017-12-31T11:54:42.432Z,1.83
2017-12-31T11:57:10.650Z,2.10
2017-12-31T11:59:38.142Z,1.60
2017-12-31T12:02:05.590Z,2.33
2017-12-31T12:04:33.050Z,1.47
2017-12-31T12:07:00.511Z,1.87
2017-12-31T12:09:27.993Z,1.30
2017-12-31T12:11:56.273Z,1.40
2017-12-31T12:14:24.486Z,1.50
2017-12-31T12:16:51.946Z,1.53
2017-12-31T12:19:19.452Z,1.27
2017-12-31T12:21:47.664Z,1.40
2017-12-31T12:24:15.120Z,1.40
2017-12-31T12:26:42.577Z,2.03
2017-12-31T12:29:10.015Z,1.37
2017-12-31T12:31:37.463Z,1.67
2017-12-31T12:34:04.912Z,1.87
2017-12-31T12:36:33.127Z,2.00
2017-12-31T12:39:00.578Z,1.23
2017-12-31T12:41:28.068Z,4.30
2017-12-31T12:43:55.516Z,1.77
2017-12-31T12:46:22.979Z,3.13
2017-12-31T12:48:50.436Z,7.57
2017-12-31T12:51:17.887Z,1.43
2017-12-31T12:53:45.385Z,2.13
2017-12-31T12:56:13.595Z,4.87
2017-12-31T12:58:41.043Z,1.77
2017-12-31T13:01:08.497Z,1.93
2017-12-31T13:03:35.952Z,2.13
2017-12-31T13:06:03.415Z,2.87
2017-12-31T13:08:30.874Z,2.33
2017-12-31T13:10:59.098Z,1.43
2017-12-31T13:13:26.549Z,1.23
2017-12-31T13:15:54.003Z,1.20
2017-12-31T13:18:21.481Z,1.73
2017-12-31T13:20:49.734Z,1.20
2017-12-31T13:23:18.001Z,1.67
2017-12-31T13:25:45.489Z,1.60
2017-12-31T13:28:13.748Z,1.13
2017-12-31T13:30:41.968Z,1.37
2017-12-31T13:33:09.482Z,1.30
2017-12-31T13:35:37.697Z,1.20
2017-12-31T13:38:05.175Z,1.00
2017-12-31T13:40:32.624Z,1.10
2017-12-31T13:43:00.082Z,1.10
2017-12-31T13:45:27.581Z,0.90
2017-12-31T13:47:55.797Z,1.50
2017-12-31T13:50:23.284Z,1.40
2017-12-31T13:52:50.726Z,1.20
2017-12-31T13:55:18.226Z,1.40
2017-12-31T13:57:46.506Z,0.90
2017-12-31T14:00:14.715Z,1.20
2017-12-31T14:02:42.166Z,1.30
2017-12-31T14:05:09.656Z,0.90
2017-12-31T14:07:37.114Z,1.33
2017-12-31T14:10:04.600Z,1.20
2017-12-31T14:12:32.860Z,1.43
2017-12-31T14:15:00.341Z,1.37
2017-12-31T14:17:27.791Z,1.33
2017-12-31T14:19:56.011Z,1.83
2017-12-31T14:22:23.467Z,2.70
2017-12-31T14:24:50.911Z,2.30
2017-12-31T14:27:18.418Z,2.20
2017-12-31T14:29:45.912Z,2.47
2017-12-31T14:32:14.511Z,2.87
2017-12-31T14:34:43.193Z,2.10
2017-12-31T14:37:10.704Z,1.77
2017-12-31T14:39:38.185Z,1.90
2017-12-31T14:42:05.630Z,1.43
2017-12-31T14:44:33.861Z,1.23
2017-12-31T14:47:01.316Z,1.50
2017-12-31T14:49:28.816Z,1.27
2017-12-31T14:51:57.026Z,1.20
2017-12-31T14:54:24.482Z,1.43
2017-12-31T14:56:51.934Z,1.50
2017-12-31T14:59:19.434Z,1.57
2017-12-31T15:01:46.872Z,1.80
2017-12-31T15:04:14.369Z,1.23
2017-12-31T15:06:42.624Z,1.80
2017-12-31T15:09:10.073Z,1.57
2017-12-31T15:11:37.543Z,1.20
2017-12-31T15:14:04.998Z,1.53
2017-12-31T15:16:32.473Z,1.43
2017-12-31T15:18:59.945Z,2.00
2017-12-31T15:21:27.429Z,2.00
2017-12-31T15:23:54.879Z,3.00
2017-12-31T15:26:22.368Z,2.80
2017-12-31T15:28:49.944Z,2.20
2017-12-31T15:31:17.446Z,2.63
2017-12-31T15:33:44.906Z,1.83
2017-12-31T15:36:12.357Z,1.60
2017-12-31T15:38:39.831Z,1.60
2017-12-31T15:41:07.274Z,1.70
2017-12-31T15:43:35.502Z,1.80
2017-12-31T15:46:02.943Z,1.47
2017-12-31T15:48:30.442Z,1.50
2017-12-31T15:50:57.870Z,1.97
2017-12-31T15:53:25.376Z,2.37
2017-12-31T15:55:52.835Z,1.70
2017-12-31T15:58:20.290Z,1.80
2017-12-31T16:00:47.754Z,2.07
2017-12-31T16:03:15.267Z,1.60
2017-12-31T16:05:43.499Z,1.90
2017-12-31T16:08:10.992Z,2.00
2017-12-31T16:10:39.214Z,1.77
2017-12-31T16:13:06.701Z,1.80
2017-12-31T16:15:34.151Z,2.00
2017-12-31T16:18:01.647Z,2.50
2017-12-31T16:20:29.916Z,2.83
2017-12-31T16:22:58.166Z,3.37
2017-12-31T16:25:25.653Z,4.40
2017-12-31T16:27:53.915Z,3.10
2017-12-31T16:30:22.142Z,3.63
2017-12-31T16:32:49.587Z,3.17
2017-12-31T16:35:17.084Z,3.30
2017-12-31T16:37:44.536Z,3.30
2017-12-31T16:40:11.992Z,3.00
2017-12-31T16:42:39.449Z,4.53
2017-12-31T16:45:06.910Z,5.10
2017-12-31T16:47:34.354Z,4.30
2017-12-31T16:50:01.853Z,4.00
2017-12-31T16:52:29.312Z,3.60
2017-12-31T16:54:57.578Z,8.60
2017-12-31T16:57:25.785Z,7.30
2017-12-31T16:59:53.270Z,8.20
2017-12-31T17:02:20.729Z,6.27
2017-12-31T17:04:48.190Z,5.33
2017-12-31T17:07:15.701Z,5.93
2017-12-31T17:09:43.285Z,5.10
2017-12-31T17:12:10.734Z,4.20
2017-12-31T17:14:38.187Z,3.80
2017-12-31T17:17:05.675Z,4.40
2017-12-31T17:19:33.126Z,4.53
2017-12-31T17:22:00.620Z,5.13
2017-12-31T17:24:28.869Z,5.60
2017-12-31T17:26:56.352Z,4.80
2017-12-31T17:29:24.555Z,4.87
2017-12-31T17:31:52.054Z,4.70
2017-12-31T17:34:19.488Z,5.17
2017-12-31T17:36:46.993Z,4.43
2017-12-31T17:39:15.265Z,5.37
2017-12-31T17:41:43.494Z,5.50
2017-12-31T17:44:10.930Z,7.43
2017-12-31T17:46:38.385Z,4.70
2017-12-31T17:49:05.882Z,4.90
2017-12-31T17:51:33.378Z,4.97
2017-12-31T17:54:01.589Z,6.67
2017-12-31T17:56:29.092Z,6.40
2017-12-31T17:58:57.456Z,14.57
2017-12-31T18:01:24.902Z,6.00
2017-12-31T18:03:52.405Z,11.97
2017-12-31T18:06:19.922Z,16.40
2017-12-31T18:08:47.358Z,8.23
2017-12-31T18:11:14.832Z,7.00
2017-12-31T18:13:42.286Z,7.33
2017-12-31T18:16:09.738Z,7.50
2017-12-31T18:18:37.236Z,8.37
2017-12-31T18:21:05.437Z,16.03
2017-12-31T18:23:32.902Z,8.30
2017-12-31T18:26:00.352Z,9.80
2017-12-31T18:28:27.814Z,19.00
2017-12-31T18:30:55.264Z,16.10
2017-12-31T18:33:22.768Z,11.60
2017-12-31T18:35:50.206Z,7.50
2017-12-31T18:38:17.662Z,7.13
2017-12-31T18:40:45.121Z,5.60
2017-12-31T18:43:12.592Z,6.43
2017-12-31T18:45:40.853Z,5.53
2017-12-31T18:48:08.311Z,5.57
2017-12-31T18:50:35.765Z,5.97
2017-12-31T18:53:03.223Z,5.43
2017-12-31T18:55:30.676Z,4.83
2017-12-31T18:57:58.126Z,5.00
2017-12-31T19:00:25.616Z,5.23
2017-12-31T19:02:53.873Z,5.30
2017-12-31T19:05:21.319Z,5.10
2017-12-31T19:07:48.770Z,6.30
2017-12-31T19:10:16.219Z,6.90
2017-12-31T19:12:43.680Z,7.27
2017-12-31T19:15:11.126Z,7.77
2017-12-31T19:17:38.624Z,6.60
2017-12-31T19:20:06.853Z,8.07
2017-12-31T19:22:34.318Z,8.80
2017-12-31T19:25:01.776Z,8.30
2017-12-31T19:27:29.233Z,6.97
2017-12-31T19:29:56.675Z,7.53
2017-12-31T19:32:24.143Z,5.87
2017-12-31T19:34:51.599Z,5.63
2017-12-31T19:37:19.124Z,5.60
2017-12-31T19:39:46.597Z,5.17
2017-12-31T19:42:14.088Z,7.13
2017-12-31T19:44:41.576Z,7.93
2017-12-31T19:47:09.819Z,8.50
2017-12-31T19:49:37.304Z,11.60
2017-12-31T19:52:05.511Z,8.80
2017-12-31T19:54:32.962Z,8.97
2017-12-31T19:57:00.424Z,8.70
2017-12-31T19:59:27.928Z,11.27
2017-12-31T20:01:55.374Z,9.80
2017-12-31T20:04:22.869Z,10.20
2017-12-31T20:06:50.369Z,10.60
2017-12-31T20:09:17.866Z,10.10
2017-12-31T20:11:46.078Z,11.70
2017-12-31T20:14:13.535Z,12.87
2017-12-31T20:16:41.016Z,11.13
2017-12-31T20:19:08.458Z,9.53
2017-12-31T20:21:35.907Z,8.80
2017-12-31T20:24:03.408Z,10.27
2017-12-31T20:26:30.850Z,10.80
2017-12-31T20:28:58.302Z,9.20
2017-12-31T20:31:25.802Z,10.20
2017-12-31T20:33:54.077Z,10.40
2017-12-31T20:36:21.563Z,9.97
2017-12-31T20:38:49.056Z,11.00
2017-12-31T20:41:16.510Z,10.30
2017-12-31T20:43:43.967Z,8.73
2017-12-31T20:46:11.478Z,9.00
2017-12-31T20:48:38.967Z,7.60
2017-12-31T20:51:06.410Z,7.97
2017-12-31T20:53:33.887Z,8.80
2017-12-31T20:56:01.398Z,13.40
2017-12-31T20:58:28.880Z,27.17
2017-12-31T21:00:56.363Z,13.20
2017-12-31T21:03:23.845Z,11.20
2017-12-31T21:05:52.063Z,10.40
2017-12-31T21:08:19.553Z,8.60
2017-12-31T21:10:47.046Z,9.13
2017-12-31T21:13:15.298Z,9.50
2017-12-31T21:15:42.739Z,19.20
2017-12-31T21:18:10.190Z,10.20
2017-12-31T21:20:37.694Z,7.07
2017-12-31T21:23:05.956Z,8.50
2017-12-31T21:25:34.174Z,8.73
2017-12-31T21:28:01.617Z,7.27
2017-12-31T21:30:29.092Z,7.83
2017-12-31T21:32:56.598Z,8.57
2017-12-31T21:35:24.818Z,7.77
2017-12-31T21:37:52.266Z,7.03
2017-12-31T21:40:20.542Z,9.00
2017-12-31T21:42:48.033Z,24.53
2017-12-31T21:45:15.489Z,10.40
2017-12-31T21:47:42.978Z,7.07
2017-12-31T21:50:11.234Z,7.60
2017-12-31T21:52:38.687Z,7.07
2017-12-31T21:55:06.179Z,5.63
2017-12-31T21:57:34.428Z,7.00
2017-12-31T22:00:02.658Z,6.37
2017-12-31T22:02:30.180Z,6.23
2017-12-31T22:04:57.689Z,5.03
2017-12-31T22:07:25.179Z,6.40
2017-12-31T22:09:53.399Z,5.93
2017-12-31T22:12:20.888Z,8.20
2017-12-31T22:14:48.367Z,7.20
2017-12-31T22:17:16.636Z,6.50
2017-12-31T22:19:48.984Z,6.03
2017-12-31T22:22:17.392Z,4.77
2017-12-31T22:24:45.642Z,6.00
2017-12-31T22:27:13.147Z,4.33
2017-12-31T22:29:40.584Z,4.33
2017-12-31T22:32:08.836Z,3.57
2017-12-31T22:34:36.323Z,4.07
2017-12-31T22:37:04.582Z,5.10
2017-12-31T22:39:32.870Z,3.73
2017-12-31T22:42:01.095Z,2.83
2017-12-31T22:44:28.580Z,2.23
2017-12-31T22:46:56.027Z,2.60
2017-12-31T22:49:23.465Z,3.10
2017-12-31T22:51:50.964Z,3.73
2017-12-31T22:54:19.246Z,7.27
2017-12-31T22:56:47.509Z,6.87
2017-12-31T22:59:15.721Z,6.70
2017-12-31T23:01:43.178Z,18.53
2017-12-31T23:04:10.672Z,28.40
2017-12-31T23:06:38.141Z,19.73
2017-12-31T23:09:05.627Z,39.17
2017-12-31T23:11:33.079Z,26.60
2017-12-31T23:14:00.534Z,48.20
2017-12-31T23:16:28.759Z,32.13
2017-12-31T23:18:56.254Z,17.23
2017-12-31T23:21:23.712Z,13.60
2017-12-31T23:23:51.942Z,25.67
2017-12-31T23:26:19.461Z,38.60
2017-12-31T23:28:46.907Z,11.63
2017-12-31T23:31:15.122Z,15.73
2017-12-31T23:33:42.592Z,22.70
2017-12-31T23:36:10.035Z,15.40
2017-12-31T23:38:37.500Z,16.43
2017-12-31T23:41:04.993Z,18.53
2017-12-31T23:43:33.220Z,16.40
2017-12-31T23:46:00.718Z,20.57
2017-12-31T23:48:28.171Z,18.33
2017-12-31T23:50:55.623Z,23.30
2017-12-31T23:53:23.229Z,17.70
2017-12-31T23:55:50.608Z,22.83
2017-12-31T23:58:18.071Z,27.97
